Weather at Vienna International Airport

Public forecast

Using degrees Celsius for public forecast. Weather courtesy of forecast.io.

Current aviation weather report (METAR) for Vienna International Airport

2022/12/08 12:50 (retrieved 35 minutes ago)

LOWW 081250Z 15012KT 9999 FEW011 BKN034 04/01 Q1010 NOSIG

Aviation forecast (TAF) for Vienna International Airport

2022/12/08 12:18 (retrieved 1 hour ago)

TAF LOWW 081115Z 0812/0918 15008KT 9999 BKN040 TX04/0812Z TN01/0822Z TEMPO 0813/0820 BKN010 BECMG 0816/0818 12004KT BECMG 0820/0822 BKN008 TEMPO 0822/0907 0400 FG VV001 BECMG 0907/0909 13009KT 2500 -RA TEMPO 0909/0914 RA